createdAt,value
2018-12-24T00:02:04.312Z,12.03
2018-12-24T00:04:31.707Z,12.00
2018-12-24T00:06:59.161Z,11.97
2018-12-24T00:09:26.564Z,12.00
2018-12-24T00:11:54.028Z,12.00
2018-12-24T00:14:21.429Z,12.01
2018-12-24T00:16:48.902Z,12.07
2018-12-24T00:19:16.407Z,12.05
2018-12-24T00:21:43.739Z,12.09
2018-12-24T00:24:11.164Z,12.21
2018-12-24T00:26:38.607Z,12.29
2018-12-24T00:29:06.015Z,12.34
2018-12-24T00:31:33.417Z,12.45
2018-12-24T00:34:00.815Z,12.52
2018-12-24T00:36:28.233Z,12.54
2018-12-24T00:38:55.640Z,12.57
2018-12-24T00:41:23.034Z,12.54
2018-12-24T00:43:50.473Z,12.54
2018-12-24T00:46:17.867Z,12.54
2018-12-24T00:48:45.305Z,12.58
2018-12-24T00:51:12.722Z,12.59
2018-12-24T00:53:40.128Z,12.64
2018-12-24T00:56:07.540Z,12.70
2018-12-24T00:58:34.940Z,12.74
2018-12-24T01:01:02.702Z,12.75
2018-12-24T01:03:30.111Z,12.79
2018-12-24T01:05:57.543Z,12.84
2018-12-24T01:08:24.947Z,12.89
2018-12-24T01:10:52.342Z,12.95
2018-12-24T01:13:19.766Z,12.96
2018-12-24T01:15:47.199Z,12.99
2018-12-24T01:18:14.604Z,13.02
2018-12-24T01:20:42.007Z,13.03
2018-12-24T01:23:09.415Z,13.06
2018-12-24T01:25:36.826Z,13.03
2018-12-24T01:28:04.231Z,13.00
2018-12-24T01:30:31.656Z,13.04
2018-12-24T01:32:59.075Z,13.03
2018-12-24T01:35:26.658Z,13.09
2018-12-24T01:37:54.048Z,13.10
2018-12-24T01:40:21.723Z,13.08
2018-12-24T01:42:49.282Z,13.07
2018-12-24T01:45:16.726Z,13.05
2018-12-24T01:47:44.142Z,13.05
2018-12-24T01:50:11.567Z,13.04
2018-12-24T01:52:38.979Z,13.01
2018-12-24T01:55:06.400Z,13.04
2018-12-24T01:57:33.793Z,13.00
2018-12-24T02:00:01.222Z,13.02
2018-12-24T02:02:29.294Z,13.06
2018-12-24T02:04:56.694Z,13.01
2018-12-24T02:07:24.097Z,13.02
2018-12-24T02:09:51.687Z,13.03
2018-12-24T02:12:19.109Z,13.05
2018-12-24T02:14:46.576Z,13.06
2018-12-24T02:17:14.028Z,13.07
2018-12-24T02:19:41.482Z,13.11
2018-12-24T02:22:12.766Z,13.13
2018-12-24T02:24:36.402Z,13.16
2018-12-24T02:27:04.947Z,13.13
2018-12-24T02:29:32.530Z,13.09
2018-12-24T02:31:59.944Z,13.09
2018-12-24T02:34:27.387Z,13.11
2018-12-24T02:36:54.881Z,13.12
2018-12-24T02:39:22.288Z,13.09
2018-12-24T02:41:49.770Z,13.09
2018-12-24T02:44:17.217Z,13.11
2018-12-24T02:46:44.618Z,13.10
2018-12-24T02:49:12.040Z,13.07
2018-12-24T02:51:39.458Z,13.09
2018-12-24T02:54:06.858Z,13.10
2018-12-24T02:56:34.249Z,13.09
2018-12-24T02:59:01.722Z,13.03
2018-12-24T03:01:29.146Z,12.97
2018-12-24T03:03:56.653Z,12.88
2018-12-24T03:06:24.233Z,12.82
2018-12-24T03:08:51.644Z,12.78
2018-12-24T03:11:19.036Z,12.75
2018-12-24T03:13:46.449Z,12.72
2018-12-24T03:16:13.875Z,12.75
2018-12-24T03:18:41.351Z,12.73
2018-12-24T03:21:08.704Z,12.74
2018-12-24T03:23:36.109Z,12.76
2018-12-24T03:26:03.536Z,12.75
2018-12-24T03:28:30.947Z,12.74
2018-12-24T03:30:58.373Z,12.74
2018-12-24T03:33:25.781Z,12.69
2018-12-24T03:35:53.197Z,12.59
2018-12-24T03:38:20.666Z,12.53
2018-12-24T03:40:48.042Z,12.46
2018-12-24T03:43:15.468Z,12.43
2018-12-24T03:45:42.913Z,12.42
2018-12-24T03:48:10.467Z,12.35
2018-12-24T03:50:38.000Z,12.33
2018-12-24T03:53:05.397Z,12.31
2018-12-24T03:55:32.805Z,12.28
2018-12-24T03:58:00.214Z,12.29
2018-12-24T04:00:28.296Z,12.24
2018-12-24T04:02:55.710Z,12.25
2018-12-24T04:05:23.119Z,12.22
2018-12-24T04:10:25.511Z,12.10
2018-12-24T04:12:52.950Z,12.04
2018-12-24T04:15:20.366Z,12.05
2018-12-24T04:17:48.144Z,12.08
2018-12-24T04:20:15.547Z,12.09
2018-12-24T04:22:42.963Z,12.09
2018-12-24T04:25:10.375Z,12.10
2018-12-24T04:27:41.944Z,12.16
2018-12-24T04:30:06.359Z,12.22
2018-12-24T04:32:33.763Z,12.27
2018-12-24T04:35:01.826Z,12.30
2018-12-24T04:37:29.235Z,12.36
2018-12-24T04:39:56.664Z,12.39
2018-12-24T04:42:24.204Z,12.40
2018-12-24T04:44:51.648Z,12.35
2018-12-24T04:47:19.090Z,12.38
2018-12-24T04:49:46.487Z,12.44
2018-12-24T04:52:13.884Z,12.46
2018-12-24T04:54:41.295Z,12.49
2018-12-24T04:57:08.695Z,12.44
2018-12-24T04:59:36.105Z,12.43
2018-12-24T05:02:03.558Z,12.34
2018-12-24T05:04:30.979Z,12.33
2018-12-24T05:06:58.411Z,12.32
2018-12-24T05:09:25.842Z,12.31
2018-12-24T05:11:53.275Z,12.28
2018-12-24T05:14:20.685Z,12.27
2018-12-24T05:16:48.123Z,12.27
2018-12-24T05:19:15.516Z,12.23
2018-12-24T05:21:43.632Z,12.18
2018-12-24T05:24:11.055Z,12.12
2018-12-24T05:26:38.490Z,12.13
2018-12-24T05:29:05.959Z,12.14
2018-12-24T05:31:33.385Z,12.19
2018-12-24T05:34:00.769Z,12.16
2018-12-24T05:36:28.250Z,12.21
2018-12-24T05:38:56.021Z,12.23
2018-12-24T05:41:23.414Z,12.23
2018-12-24T05:43:50.873Z,12.24
2018-12-24T05:46:18.355Z,12.30
2018-12-24T05:48:45.792Z,12.31
2018-12-24T05:51:13.313Z,12.30
2018-12-24T05:53:40.751Z,12.30
2018-12-24T05:56:08.151Z,12.35
2018-12-24T05:58:35.548Z,12.30
2018-12-24T06:01:02.968Z,12.27
2018-12-24T06:03:30.436Z,12.22
2018-12-24T06:05:57.861Z,12.26
2018-12-24T06:08:25.539Z,12.24
2018-12-24T06:10:53.198Z,12.28
2018-12-24T06:13:20.560Z,12.28
2018-12-24T06:15:48.053Z,12.25
2018-12-24T06:18:15.479Z,12.29
2018-12-24T06:20:42.907Z,12.29
2018-12-24T06:23:10.299Z,12.27
2018-12-24T06:25:37.918Z,12.31
2018-12-24T06:28:05.360Z,12.33
2018-12-24T06:30:32.760Z,12.33
2018-12-24T06:33:00.185Z,12.34
2018-12-24T06:35:27.586Z,12.39
2018-12-24T06:37:54.999Z,12.41
2018-12-24T06:40:22.436Z,12.41
2018-12-24T06:42:50.564Z,12.41
2018-12-24T06:45:18.192Z,12.42
2018-12-24T06:47:45.582Z,12.42
2018-12-24T06:50:13.009Z,12.40
2018-12-24T06:52:40.402Z,12.38
2018-12-24T06:55:07.819Z,12.43
2018-12-24T06:57:35.239Z,12.45
2018-12-24T07:00:02.637Z,12.45
2018-12-24T07:02:30.106Z,12.42
2018-12-24T07:04:57.514Z,12.42
2018-12-24T07:07:24.922Z,12.41
2018-12-24T07:09:52.321Z,12.39
2018-12-24T07:12:20.486Z,12.40
2018-12-24T07:14:48.041Z,12.41
2018-12-24T07:17:15.440Z,12.44
2018-12-24T07:19:42.857Z,12.49
2018-12-24T07:22:10.255Z,12.49
2018-12-24T07:24:38.216Z,12.50
2018-12-24T07:27:05.688Z,12.50
2018-12-24T07:29:33.127Z,12.52
2018-12-24T07:32:00.509Z,12.50
2018-12-24T07:34:32.417Z,12.48
2018-12-24T07:36:55.359Z,12.51
2018-12-24T07:39:22.776Z,12.53
2018-12-24T07:41:50.398Z,12.56
2018-12-24T07:44:24.067Z,12.54
2018-12-24T07:46:45.419Z,12.55
2018-12-24T07:49:12.862Z,12.54
2018-12-24T07:51:40.398Z,12.56
2018-12-24T07:54:08.340Z,12.52
2018-12-24T07:56:35.749Z,12.55
2018-12-24T07:59:03.358Z,12.53
2018-12-24T08:01:30.764Z,12.61
2018-12-24T08:03:58.526Z,12.59
2018-12-24T08:06:26.003Z,12.60
2018-12-24T08:08:53.859Z,12.60
2018-12-24T08:11:21.628Z,12.60
2018-12-24T08:13:49.036Z,12.61
2018-12-24T08:18:38.787Z,12.55
2018-12-24T08:21:06.862Z,12.62
2018-12-24T08:23:34.306Z,12.63
2018-12-24T08:26:02.497Z,12.66
2018-12-24T08:28:30.119Z,12.68
2018-12-24T08:30:58.466Z,12.69
2018-12-24T08:33:25.866Z,12.72
2018-12-24T08:35:53.280Z,12.77
2018-12-24T08:38:20.728Z,12.76
2018-12-24T08:40:48.303Z,12.79
2018-12-24T08:43:15.704Z,12.92
2018-12-24T08:45:43.329Z,12.94
2018-12-24T08:48:10.784Z,12.96
2018-12-24T08:50:38.225Z,13.07
2018-12-24T08:53:06.420Z,12.91
2018-12-24T08:55:33.863Z,12.93
2018-12-24T08:58:01.272Z,12.95
2018-12-24T09:00:28.682Z,12.95
2018-12-24T09:02:56.128Z,13.06
2018-12-24T09:05:23.589Z,13.06
2018-12-24T09:07:50.975Z,13.04
2018-12-24T09:10:18.399Z,13.09
2018-12-24T09:12:45.826Z,13.16
2018-12-24T09:15:13.916Z,13.18
2018-12-24T09:17:42.017Z,13.29
2018-12-24T09:20:09.824Z,13.32
2018-12-24T09:22:37.211Z,13.29
2018-12-24T09:25:04.691Z,13.28
2018-12-24T09:27:32.110Z,13.23
2018-12-24T09:29:59.659Z,13.14
2018-12-24T09:32:27.087Z,13.28
2018-12-24T09:34:55.388Z,13.33
2018-12-24T09:37:22.899Z,13.25
2018-12-24T09:39:50.331Z,13.19
2018-12-24T09:42:19.540Z,13.15
2018-12-24T09:44:46.966Z,13.10
2018-12-24T09:47:14.871Z,13.14
2018-12-24T09:49:42.565Z,13.13
2018-12-24T09:52:09.986Z,13.24
2018-12-24T09:54:37.399Z,13.28
2018-12-24T09:57:04.810Z,13.36
2018-12-24T09:59:32.329Z,13.36
2018-12-24T10:02:00.546Z,13.40
2018-12-24T10:04:27.981Z,13.43
2018-12-24T10:06:55.455Z,13.46
2018-12-24T10:09:22.877Z,13.49
2018-12-24T10:11:50.887Z,13.42
2018-12-24T10:14:18.471Z,13.41
2018-12-24T10:16:45.900Z,13.46
2018-12-24T10:19:13.306Z,13.47
2018-12-24T10:21:41.077Z,13.37
2018-12-24T10:24:08.768Z,13.31
2018-12-24T10:26:36.223Z,13.24
2018-12-24T10:29:04.568Z,13.08
2018-12-24T10:31:31.977Z,13.09
2018-12-24T10:33:59.410Z,13.10
2018-12-24T10:36:27.083Z,13.16
2018-12-24T10:38:54.492Z,13.16
2018-12-24T10:41:21.964Z,13.13
2018-12-24T10:43:50.953Z,13.09
2018-12-24T10:46:18.615Z,13.10
2018-12-24T10:48:46.602Z,13.08
2018-12-24T10:51:14.113Z,13.03
2018-12-24T10:53:41.563Z,12.96
2018-12-24T10:56:09.031Z,12.92
2018-12-24T10:58:37.395Z,12.94
2018-12-24T11:01:04.792Z,12.99
2018-12-24T11:03:32.208Z,13.01
2018-12-24T11:05:59.654Z,12.99
2018-12-24T11:08:27.117Z,13.08
2018-12-24T11:10:54.531Z,13.18
2018-12-24T11:13:21.929Z,13.18
2018-12-24T11:15:49.550Z,12.76
2018-12-24T11:18:17.000Z,12.26
2018-12-24T11:20:44.478Z,12.04
2018-12-24T11:23:11.941Z,11.66
2018-12-24T11:25:39.971Z,11.44
2018-12-24T11:28:07.445Z,11.28
2018-12-24T11:30:35.151Z,11.24
2018-12-24T11:33:02.722Z,11.21
2018-12-24T11:35:30.104Z,11.05
2018-12-24T11:37:57.534Z,11.06
2018-12-24T11:40:24.983Z,10.92
2018-12-24T11:42:53.195Z,10.89
2018-12-24T11:45:20.658Z,10.96
2018-12-24T11:47:48.067Z,10.88
2018-12-24T11:50:16.368Z,10.80
2018-12-24T11:52:43.816Z,10.81
2018-12-24T11:55:11.255Z,10.86
2018-12-24T11:57:38.666Z,10.86
2018-12-24T12:00:06.074Z,10.82
2018-12-24T12:02:33.784Z,10.87
2018-12-24T12:05:01.203Z,10.89
2018-12-24T12:07:28.668Z,10.84
2018-12-24T12:09:56.077Z,10.89
2018-12-24T12:12:24.142Z,10.91
2018-12-24T12:14:51.534Z,10.87
2018-12-24T12:17:18.957Z,10.85
2018-12-24T12:19:46.412Z,10.81
2018-12-24T12:22:13.844Z,10.67
2018-12-24T12:24:41.246Z,10.73
2018-12-24T12:27:08.672Z,10.72
2018-12-24T12:29:36.075Z,10.85
2018-12-24T12:32:03.514Z,10.94
2018-12-24T12:34:30.925Z,10.98
2018-12-24T12:36:58.412Z,11.00
2018-12-24T12:39:25.826Z,11.03
2018-12-24T12:41:53.259Z,10.92
2018-12-24T12:44:21.380Z,11.00
2018-12-24T12:46:48.941Z,11.01
2018-12-24T12:49:16.394Z,10.93
2018-12-24T12:51:43.799Z,10.91
2018-12-24T12:54:11.245Z,10.96
2018-12-24T12:56:39.402Z,11.00
2018-12-24T12:59:07.423Z,11.04
2018-12-24T13:01:34.861Z,10.96
2018-12-24T13:04:02.382Z,10.89
2018-12-24T13:06:29.773Z,10.92
2018-12-24T13:08:57.211Z,10.98
2018-12-24T13:11:24.651Z,10.98
2018-12-24T13:13:52.066Z,11.01
2018-12-24T13:16:19.544Z,10.99
2018-12-24T13:18:46.947Z,10.93
2018-12-24T13:21:14.372Z,10.98
2018-12-24T13:23:41.759Z,11.05
2018-12-24T13:26:09.588Z,11.14
2018-12-24T13:28:37.006Z,11.12
2018-12-24T13:31:04.507Z,11.18
2018-12-24T13:33:31.914Z,11.15
2018-12-24T13:35:59.316Z,11.21
2018-12-24T13:38:26.702Z,11.26
2018-12-24T13:40:54.148Z,11.15
2018-12-24T13:43:21.596Z,11.15
2018-12-24T13:45:49.030Z,11.15
2018-12-24T13:48:17.588Z,11.13
2018-12-24T13:50:45.832Z,11.15
2018-12-24T13:53:13.261Z,11.13
2018-12-24T13:55:40.654Z,11.24
2018-12-24T13:58:08.067Z,11.22
2018-12-24T14:00:35.503Z,11.17
2018-12-24T14:03:02.918Z,11.09
2018-12-24T14:05:30.927Z,10.94
2018-12-24T14:07:58.350Z,10.85
2018-12-24T14:10:25.804Z,10.79
2018-12-24T14:12:53.835Z,10.79
2018-12-24T14:15:20.891Z,10.83
2018-12-24T14:17:48.288Z,10.88
2018-12-24T14:20:15.770Z,10.87
2018-12-24T14:22:43.198Z,10.84
2018-12-24T14:25:10.628Z,10.82
2018-12-24T14:27:38.045Z,10.81
2018-12-24T14:30:05.559Z,10.78
2018-12-24T14:32:33.860Z,10.76
2018-12-24T14:35:01.272Z,10.73
2018-12-24T14:37:28.780Z,10.67
2018-12-24T14:39:56.243Z,10.71
2018-12-24T14:42:23.644Z,10.68
2018-12-24T14:44:51.209Z,10.62
2018-12-24T14:47:19.477Z,10.64
2018-12-24T14:49:47.012Z,10.63
2018-12-24T14:52:14.432Z,10.66
2018-12-24T14:54:42.447Z,10.65
2018-12-24T14:57:09.883Z,10.71
2018-12-24T14:59:37.298Z,10.69
2018-12-24T15:02:04.711Z,10.52
2018-12-24T15:04:32.133Z,10.46
2018-12-24T15:06:59.587Z,10.41
2018-12-24T15:09:27.151Z,10.36
2018-12-24T15:11:54.551Z,10.31
2018-12-24T15:14:21.992Z,10.33
2018-12-24T15:16:49.410Z,10.33
2018-12-24T15:19:16.933Z,10.24
2018-12-24T15:21:44.578Z,10.20
2018-12-24T15:24:11.984Z,10.19
2018-12-24T15:26:39.479Z,10.18
2018-12-24T15:29:06.930Z,10.18
2018-12-24T15:31:34.347Z,10.24
2018-12-24T15:34:02.654Z,10.25
2018-12-24T15:36:32.146Z,10.19
2018-12-24T15:38:57.619Z,10.20
2018-12-24T15:41:25.105Z,10.19
2018-12-24T15:43:52.839Z,10.19
2018-12-24T15:46:20.304Z,10.07
2018-12-24T15:48:47.826Z,10.01
2018-12-24T15:51:15.336Z,9.97
2018-12-24T15:53:42.734Z,9.94
2018-12-24T15:56:10.171Z,9.92
2018-12-24T15:58:37.576Z,9.87
2018-12-24T16:01:05.821Z,9.77
2018-12-24T16:03:36.996Z,9.82
2018-12-24T16:06:00.665Z,10.19
2018-12-24T16:08:28.054Z,9.94
2018-12-24T16:10:55.441Z,9.77
2018-12-24T16:13:22.833Z,9.54
2018-12-24T16:15:50.520Z,9.49
2018-12-24T16:18:17.964Z,9.46
2018-12-24T16:20:46.315Z,9.35
2018-12-24T16:23:13.716Z,9.27
2018-12-24T16:25:41.345Z,9.27
2018-12-24T16:28:08.741Z,9.22
2018-12-24T16:30:36.149Z,9.18
2018-12-24T16:33:03.605Z,9.20
2018-12-24T16:35:31.005Z,9.18
2018-12-24T16:37:58.435Z,9.13
2018-12-24T16:40:25.838Z,9.03
2018-12-24T16:42:53.313Z,9.00
2018-12-24T16:45:20.766Z,8.99
2018-12-24T16:47:48.164Z,8.96
2018-12-24T16:50:15.619Z,8.91
2018-12-24T16:52:43.078Z,8.89
2018-12-24T16:55:10.525Z,8.90
2018-12-24T16:57:37.937Z,8.90
2018-12-24T17:00:05.586Z,8.81
2018-12-24T17:02:33.612Z,8.75
2018-12-24T17:05:01.011Z,8.68
2018-12-24T17:07:28.469Z,8.65
2018-12-24T17:09:55.904Z,8.68
2018-12-24T17:12:23.310Z,8.70
2018-12-24T17:14:50.821Z,8.75
2018-12-24T17:17:18.559Z,8.74
2018-12-24T17:19:45.972Z,8.69
2018-12-24T17:22:13.406Z,8.71
2018-12-24T17:24:40.918Z,8.77
2018-12-24T17:27:08.334Z,8.82
2018-12-24T17:29:36.461Z,8.79
2018-12-24T17:32:03.869Z,8.78
2018-12-24T17:34:31.313Z,8.76
2018-12-24T17:36:59.665Z,8.77
2018-12-24T17:39:27.999Z,8.78
2018-12-24T17:41:55.534Z,8.73
2018-12-24T17:44:23.130Z,8.74
2018-12-24T17:46:50.542Z,8.75
2018-12-24T17:49:17.945Z,8.76
2018-12-24T17:51:45.373Z,8.66
2018-12-24T17:54:12.810Z,8.59
2018-12-24T17:56:40.210Z,8.62
2018-12-24T17:59:08.433Z,8.64
2018-12-24T18:01:35.832Z,8.59
2018-12-24T18:04:03.265Z,8.50
2018-12-24T18:06:30.672Z,8.48
2018-12-24T18:08:58.074Z,8.39
2018-12-24T18:11:25.545Z,8.39
2018-12-24T18:13:52.991Z,8.42
2018-12-24T18:16:20.475Z,8.33
2018-12-24T18:18:49.980Z,8.32
2018-12-24T18:21:17.409Z,8.30
2018-12-24T18:23:44.826Z,8.28
2018-12-24T18:26:12.231Z,8.28
2018-12-24T18:28:39.673Z,8.20
2018-12-24T18:31:07.072Z,8.19
2018-12-24T18:33:34.515Z,8.19
2018-12-24T18:36:01.914Z,8.19
2018-12-24T18:38:29.320Z,8.13
2018-12-24T18:40:56.735Z,8.04
2018-12-24T18:43:24.168Z,8.03
2018-12-24T18:45:51.575Z,8.05
2018-12-24T18:48:18.995Z,8.06
2018-12-24T18:50:46.507Z,8.02
2018-12-24T18:53:13.934Z,8.05
2018-12-24T18:55:41.350Z,8.08
2018-12-24T18:58:08.744Z,8.09
2018-12-24T19:00:36.816Z,8.17
2018-12-24T19:03:04.595Z,8.20
2018-12-24T19:05:32.051Z,8.19
2018-12-24T19:07:59.466Z,8.14
2018-12-24T19:10:26.893Z,8.11
2018-12-24T19:12:54.289Z,8.07
2018-12-24T19:15:21.867Z,8.00
2018-12-24T19:17:49.245Z,7.98
2018-12-24T19:20:16.662Z,7.94
2018-12-24T19:22:44.119Z,7.96
2018-12-24T19:25:11.527Z,7.92
2018-12-24T19:27:38.984Z,7.89
2018-12-24T19:30:06.362Z,7.89
2018-12-24T19:32:33.770Z,7.92
2018-12-24T19:35:01.265Z,7.93
2018-12-24T19:37:28.778Z,7.96
2018-12-24T19:39:56.216Z,8.04
2018-12-24T19:42:23.624Z,8.08
2018-12-24T19:44:51.250Z,8.10
2018-12-24T19:47:18.693Z,8.16
2018-12-24T19:49:46.096Z,8.19
2018-12-24T19:52:13.591Z,8.15
2018-12-24T19:54:40.985Z,8.16
2018-12-24T19:57:08.388Z,8.21
2018-12-24T19:59:35.800Z,8.24
2018-12-24T20:02:03.555Z,8.23
2018-12-24T20:04:31.034Z,8.11
2018-12-24T20:06:59.287Z,7.98
2018-12-24T20:09:26.711Z,7.98
2018-12-24T20:11:54.112Z,8.03
2018-12-24T20:14:21.598Z,8.04
2018-12-24T20:16:48.987Z,7.98
2018-12-24T20:19:16.386Z,8.02
2018-12-24T20:21:43.787Z,8.04
2018-12-24T20:24:11.786Z,7.94
2018-12-24T20:26:39.179Z,7.93
2018-12-24T20:29:06.603Z,7.88
2018-12-24T20:31:33.987Z,7.82
2018-12-24T20:34:01.416Z,7.81
2018-12-24T20:36:28.823Z,7.73
2018-12-24T20:38:56.247Z,7.73
2018-12-24T20:41:23.689Z,7.74
2018-12-24T20:43:51.507Z,7.70
2018-12-24T20:46:18.913Z,7.70
2018-12-24T20:48:46.309Z,7.73
2018-12-24T20:51:16.253Z,7.72
2018-12-24T20:53:41.226Z,7.69
2018-12-24T20:56:08.649Z,7.72
2018-12-24T20:58:36.026Z,7.61
2018-12-24T21:01:03.486Z,7.62
2018-12-24T21:03:31.023Z,7.64
2018-12-24T21:05:58.419Z,7.58
2018-12-24T21:08:25.877Z,7.47
2018-12-24T21:10:54.530Z,7.43
2018-12-24T21:13:21.924Z,7.44
2018-12-24T21:15:49.835Z,7.45
2018-12-24T21:18:17.289Z,7.46
2018-12-24T21:20:44.721Z,7.46
2018-12-24T21:23:12.134Z,7.44
2018-12-24T21:25:39.554Z,7.43
2018-12-24T21:28:06.939Z,7.45
2018-12-24T21:30:34.368Z,7.44
2018-12-24T21:33:02.653Z,7.44
2018-12-24T21:35:30.155Z,7.45
2018-12-24T21:37:58.661Z,7.46
2018-12-24T21:40:26.071Z,7.38
2018-12-24T21:42:54.637Z,7.33
2018-12-24T21:45:21.907Z,7.33
2018-12-24T21:47:49.378Z,7.35
2018-12-24T21:50:16.778Z,7.38
2018-12-24T21:52:44.267Z,7.41
2018-12-24T21:55:11.719Z,7.48
2018-12-24T21:57:39.179Z,7.53
2018-12-24T22:00:06.577Z,7.54
2018-12-24T22:02:34.011Z,7.54
2018-12-24T22:05:01.443Z,7.53
2018-12-24T22:07:28.886Z,7.54
2018-12-24T22:09:56.383Z,7.50
2018-12-24T22:12:23.802Z,7.41
2018-12-24T22:14:51.209Z,7.40
2018-12-24T22:17:18.616Z,7.45
2018-12-24T22:19:46.023Z,7.43
2018-12-24T22:22:13.429Z,7.46
2018-12-24T22:24:40.859Z,7.51
2018-12-24T22:27:08.276Z,7.56
2018-12-24T22:29:35.689Z,7.63
2018-12-24T22:32:03.098Z,7.64
2018-12-24T22:34:30.617Z,7.62
2018-12-24T22:36:58.271Z,7.55
2018-12-24T22:39:25.673Z,7.51
2018-12-24T22:41:53.084Z,7.52
2018-12-24T22:44:20.496Z,7.56
2018-12-24T22:46:48.699Z,7.57
2018-12-24T22:49:16.079Z,7.54
2018-12-24T22:51:43.500Z,7.49
2018-12-24T22:54:10.918Z,7.47
2018-12-24T22:56:39.210Z,7.44
2018-12-24T22:59:06.615Z,7.44
2018-12-24T23:01:34.019Z,7.45
2018-12-24T23:04:01.419Z,7.46
2018-12-24T23:06:28.858Z,7.52
2018-12-24T23:08:57.627Z,7.60
2018-12-24T23:11:25.548Z,7.60
2018-12-24T23:13:53.033Z,7.61
2018-12-24T23:16:20.460Z,7.55
2018-12-24T23:18:49.589Z,7.53
2018-12-24T23:21:15.259Z,7.52
2018-12-24T23:23:42.663Z,7.47
2018-12-24T23:26:10.064Z,7.45
2018-12-24T23:28:37.495Z,7.46
2018-12-24T23:31:06.007Z,7.44
2018-12-24T23:33:33.235Z,7.30
2018-12-24T23:36:00.655Z,7.23
2018-12-24T23:38:28.067Z,7.25
2018-12-24T23:40:55.475Z,7.23
2018-12-24T23:43:22.877Z,7.26
2018-12-24T23:45:50.299Z,7.26
2018-12-24T23:48:17.737Z,7.26
2018-12-24T23:50:45.139Z,7.32
2018-12-24T23:53:12.566Z,7.27
2018-12-24T23:55:40.133Z,7.27
2018-12-24T23:58:07.560Z,7.28
